sensor_id;sensor_type;location;lat;lon;timestamp;temperature;humidity
1075;DHT22;526;51.392;12.448;2023-04-25T00:02:20;8.00;97.30
1075;DHT22;526;51.392;12.448;2023-04-25T00:04:45;8.10;97.30
1075;DHT22;526;51.392;12.448;2023-04-25T00:07:11;8.10;97.30
1075;DHT22;526;51.392;12.448;2023-04-25T00:09:37;8.20;97.30
1075;DHT22;526;51.392;12.448;2023-04-25T00:12:03;8.20;97.30
1075;DHT22;526;51.392;12.448;2023-04-25T00:14:29;8.20;97.30
1075;DHT22;526;51.392;12.448;2023-04-25T00:16:55;8.20;97.30
1075;DHT22;526;51.392;12.448;2023-04-25T00:19:21;8.20;97.30
1075;DHT22;526;51.392;12.448;2023-04-25T00:21:46;8.30;97.30
1075;DHT22;526;51.392;12.448;2023-04-25T00:24:13;8.30;97.30
1075;DHT22;526;51.392;12.448;2023-04-25T00:26:38;8.30;97.30
1075;DHT22;526;51.392;12.448;2023-04-25T00:29:04;8.30;97.30
1075;DHT22;526;51.392;12.448;2023-04-25T00:31:30;8.30;97.30
1075;DHT22;526;51.392;12.448;2023-04-25T00:33:55;8.30;97.30
1075;DHT22;526;51.392;12.448;2023-04-25T00:36:21;8.30;97.30
1075;DHT22;526;51.392;12.448;2023-04-25T00:38:47;8.30;97.30
1075;DHT22;526;51.392;12.448;2023-04-25T00:41:12;8.30;97.30
1075;DHT22;526;51.392;12.448;2023-04-25T00:43:39;8.30;97.30
1075;DHT22;526;51.392;12.448;2023-04-25T00:46:05;8.30;97.30
1075;DHT22;526;51.392;12.448;2023-04-25T00:48:30;8.30;97.30
1075;DHT22;526;51.392;12.448;2023-04-25T00:50:58;8.30;97.30
1075;DHT22;526;51.392;12.448;2023-04-25T00:53:25;8.20;97.30
1075;DHT22;526;51.392;12.448;2023-04-25T00:55:51;8.10;97.30
1075;DHT22;526;51.392;12.448;2023-04-25T00:58:17;8.10;97.30
1075;DHT22;526;51.392;12.448;2023-04-25T01:00:47;8.00;97.30
1075;DHT22;526;51.392;12.448;2023-04-25T01:03:14;8.00;97.30
1075;DHT22;526;51.392;12.448;2023-04-25T01:05:42;7.90;97.30
1075;DHT22;526;51.392;12.448;2023-04-25T01:08:08;7.90;97.30
1075;DHT22;526;51.392;12.448;2023-04-25T01:10:33;7.90;97.30
1075;DHT22;526;51.392;12.448;2023-04-25T01:12:59;7.80;97.30
1075;DHT22;526;51.392;12.448;2023-04-25T01:15:25;7.70;97.30
1075;DHT22;526;51.392;12.448;2023-04-25T01:17:50;7.70;97.30
1075;DHT22;526;51.392;12.448;2023-04-25T01:20:16;7.70;97.30
1075;DHT22;526;51.392;12.448;2023-04-25T01:22:42;7.60;97.30
1075;DHT22;526;51.392;12.448;2023-04-25T01:25:08;7.50;97.30
1075;DHT22;526;51.392;12.448;2023-04-25T01:27:36;7.50;97.30
1075;DHT22;526;51.392;12.448;2023-04-25T01:30:02;7.50;97.30
1075;DHT22;526;51.392;12.448;2023-04-25T01:32:28;7.40;97.30
1075;DHT22;526;51.392;12.448;2023-04-25T01:34:56;7.40;97.30
1075;DHT22;526;51.392;12.448;2023-04-25T01:37:22;7.40;97.30
1075;DHT22;526;51.392;12.448;2023-04-25T01:39:48;7.30;97.30
1075;DHT22;526;51.392;12.448;2023-04-25T01:42:14;7.30;97.30
1075;DHT22;526;51.392;12.448;2023-04-25T01:44:40;7.30;97.30
1075;DHT22;526;51.392;12.448;2023-04-25T01:47:05;7.20;97.30
1075;DHT22;526;51.392;12.448;2023-04-25T01:49:31;7.20;97.30
1075;DHT22;526;51.392;12.448;2023-04-25T01:51:56;7.20;97.30
1075;DHT22;526;51.392;12.448;2023-04-25T01:54:22;7.10;97.30
1075;DHT22;526;51.392;12.448;2023-04-25T01:56:51;7.10;97.30
1075;DHT22;526;51.392;12.448;2023-04-25T01:59:18;7.10;97.30
1075;DHT22;526;51.392;12.448;2023-04-25T02:01:45;7.00;97.30
1075;DHT22;526;51.392;12.448;2023-04-25T02:04:10;7.00;97.30
1075;DHT22;526;51.392;12.448;2023-04-25T02:06:36;7.00;97.30
1075;DHT22;526;51.392;12.448;2023-04-25T02:09:01;6.90;97.30
1075;DHT22;526;51.392;12.448;2023-04-25T02:11:27;6.90;97.30
1075;DHT22;526;51.392;12.448;2023-04-25T02:13:52;6.90;97.30
1075;DHT22;526;51.392;12.448;2023-04-25T02:16:17;6.80;97.30
1075;DHT22;526;51.392;12.448;2023-04-25T02:18:44;6.80;97.30
1075;DHT22;526;51.392;12.448;2023-04-25T02:21:10;6.80;97.30
1075;DHT22;526;51.392;12.448;2023-04-25T02:23:37;6.80;97.30
1075;DHT22;526;51.392;12.448;2023-04-25T02:26:02;6.80;97.30
1075;DHT22;526;51.392;12.448;2023-04-25T02:28:28;6.70;97.30
1075;DHT22;526;51.392;12.448;2023-04-25T02:30:53;6.70;97.30
1075;DHT22;526;51.392;12.448;2023-04-25T02:33:19;6.70;97.30
1075;DHT22;526;51.392;12.448;2023-04-25T02:35:46;6.70;97.30
1075;DHT22;526;51.392;12.448;2023-04-25T02:38:11;6.60;97.30
1075;DHT22;526;51.392;12.448;2023-04-25T02:40:37;6.60;97.30
1075;DHT22;526;51.392;12.448;2023-04-25T02:43:02;6.60;97.30
1075;DHT22;526;51.392;12.448;2023-04-25T02:45:28;6.50;97.30
1075;DHT22;526;51.392;12.448;2023-04-25T02:47:53;6.50;97.30
1075;DHT22;526;51.392;12.448;2023-04-25T02:50:19;6.50;97.30
1075;DHT22;526;51.392;12.448;2023-04-25T02:52:45;6.50;97.30
1075;DHT22;526;51.392;12.448;2023-04-25T02:55:12;6.40;97.30
1075;DHT22;526;51.392;12.448;2023-04-25T02:57:38;6.40;97.30
1075;DHT22;526;51.392;12.448;2023-04-25T03:00:04;6.40;97.30
1075;DHT22;526;51.392;12.448;2023-04-25T03:02:30;6.40;97.30
1075;DHT22;526;51.392;12.448;2023-04-25T03:04:56;6.40;97.30
1075;DHT22;526;51.392;12.448;2023-04-25T03:07:21;6.40;97.30
1075;DHT22;526;51.392;12.448;2023-04-25T03:09:46;6.30;97.30
1075;DHT22;526;51.392;12.448;2023-04-25T03:12:12;6.30;97.30
1075;DHT22;526;51.392;12.448;2023-04-25T03:14:37;6.30;97.30
1075;DHT22;526;51.392;12.448;2023-04-25T03:17:03;6.30;97.30
1075;DHT22;526;51.392;12.448;2023-04-25T03:19:28;6.30;97.30
1075;DHT22;526;51.392;12.448;2023-04-25T03:24:20;6.20;97.30
1075;DHT22;526;51.392;12.448;2023-04-25T03:26:46;6.10;97.30
1075;DHT22;526;51.392;12.448;2023-04-25T03:29:11;6.10;97.30
1075;DHT22;526;51.392;12.448;2023-04-25T03:31:37;6.10;97.30
1075;DHT22;526;51.392;12.448;2023-04-25T03:34:02;6.00;97.30
1075;DHT22;526;51.392;12.448;2023-04-25T03:36:28;6.00;97.30
1075;DHT22;526;51.392;12.448;2023-04-25T03:38:53;6.00;97.30
1075;DHT22;526;51.392;12.448;2023-04-25T03:41:18;5.90;97.30
1075;DHT22;526;51.392;12.448;2023-04-25T03:43:44;5.90;97.30
1075;DHT22;526;51.392;12.448;2023-04-25T03:46:10;5.80;97.30
1075;DHT22;526;51.392;12.448;2023-04-25T03:48:35;5.80;97.30
1075;DHT22;526;51.392;12.448;2023-04-25T03:51:01;5.80;97.30
1075;DHT22;526;51.392;12.448;2023-04-25T03:53:26;5.80;97.30
1075;DHT22;526;51.392;12.448;2023-04-25T03:55:52;5.80;97.30
1075;DHT22;526;51.392;12.448;2023-04-25T03:58:17;5.80;97.30
1075;DHT22;526;51.392;12.448;2023-04-25T04:00:43;5.70;97.30
1075;DHT22;526;51.392;12.448;2023-04-25T04:03:08;5.70;97.30
1075;DHT22;526;51.392;12.448;2023-04-25T04:05:34;5.70;97.30
1075;DHT22;526;51.392;12.448;2023-04-25T04:07:59;5.70;97.30
1075;DHT22;526;51.392;12.448;2023-04-25T04:10:25;5.70;97.30
1075;DHT22;526;51.392;12.448;2023-04-25T04:12:51;5.70;97.30
1075;DHT22;526;51.392;12.448;2023-04-25T04:15:16;5.70;97.30
1075;DHT22;526;51.392;12.448;2023-04-25T04:17:42;5.70;97.30
1075;DHT22;526;51.392;12.448;2023-04-25T04:20:08;5.70;97.30
1075;DHT22;526;51.392;12.448;2023-04-25T04:22:34;5.70;97.30
1075;DHT22;526;51.392;12.448;2023-04-25T04:25:00;5.80;97.30
1075;DHT22;526;51.392;12.448;2023-04-25T04:27:25;5.80;97.30
1075;DHT22;526;51.392;12.448;2023-04-25T04:29:51;5.80;97.30
1075;DHT22;526;51.392;12.448;2023-04-25T04:32:18;5.80;97.30
1075;DHT22;526;51.392;12.448;2023-04-25T04:34:44;5.90;97.30
1075;DHT22;526;51.392;12.448;2023-04-25T04:37:09;5.90;97.30
1075;DHT22;526;51.392;12.448;2023-04-25T04:39:36;5.90;97.30
1075;DHT22;526;51.392;12.448;2023-04-25T04:42:01;5.90;97.30
1075;DHT22;526;51.392;12.448;2023-04-25T04:44:27;5.90;97.30
1075;DHT22;526;51.392;12.448;2023-04-25T04:46:54;5.90;97.30
1075;DHT22;526;51.392;12.448;2023-04-25T04:49:19;5.90;97.30
1075;DHT22;526;51.392;12.448;2023-04-25T04:54:12;6.00;97.30
1075;DHT22;526;51.392;12.448;2023-04-25T04:56:37;6.00;97.30
1075;DHT22;526;51.392;12.448;2023-04-25T04:59:03;6.10;97.30
1075;DHT22;526;51.392;12.448;2023-04-25T05:01:29;6.10;97.30
1075;DHT22;526;51.392;12.448;2023-04-25T05:03:56;6.20;97.30
1075;DHT22;526;51.392;12.448;2023-04-25T05:06:29;6.30;97.30
1075;DHT22;526;51.392;12.448;2023-04-25T05:08:55;6.40;97.30
1075;DHT22;526;51.392;12.448;2023-04-25T05:11:22;6.40;97.30
1075;DHT22;526;51.392;12.448;2023-04-25T05:13:49;6.50;97.30
1075;DHT22;526;51.392;12.448;2023-04-25T05:16:14;6.50;97.30
1075;DHT22;526;51.392;12.448;2023-04-25T05:18:40;6.50;97.30
1075;DHT22;526;51.392;12.448;2023-04-25T05:21:05;6.60;97.30
1075;DHT22;526;51.392;12.448;2023-04-25T05:23:32;6.70;97.30
1075;DHT22;526;51.392;12.448;2023-04-25T05:25:58;6.80;97.30
1075;DHT22;526;51.392;12.448;2023-04-25T05:28:23;6.80;97.30
1075;DHT22;526;51.392;12.448;2023-04-25T05:30:49;6.90;97.30
1075;DHT22;526;51.392;12.448;2023-04-25T05:33:15;6.90;97.30
1075;DHT22;526;51.392;12.448;2023-04-25T05:35:42;7.00;97.30
1075;DHT22;526;51.392;12.448;2023-04-25T05:38:07;7.10;97.30
1075;DHT22;526;51.392;12.448;2023-04-25T05:40:33;7.10;97.30
1075;DHT22;526;51.392;12.448;2023-04-25T05:42:58;7.20;97.30
1075;DHT22;526;51.392;12.448;2023-04-25T05:45:24;7.20;97.30
1075;DHT22;526;51.392;12.448;2023-04-25T05:50:16;7.30;97.30
1075;DHT22;526;51.392;12.448;2023-04-25T05:52:42;7.40;97.30
1075;DHT22;526;51.392;12.448;2023-04-25T05:55:08;7.40;97.30
1075;DHT22;526;51.392;12.448;2023-04-25T05:57:33;7.50;97.30
1075;DHT22;526;51.392;12.448;2023-04-25T05:59:59;7.50;97.30
1075;DHT22;526;51.392;12.448;2023-04-25T06:02:24;7.60;97.30
1075;DHT22;526;51.392;12.448;2023-04-25T06:04:50;7.60;97.30
1075;DHT22;526;51.392;12.448;2023-04-25T06:07:17;7.70;97.30
1075;DHT22;526;51.392;12.448;2023-04-25T06:09:43;7.70;97.30
1075;DHT22;526;51.392;12.448;2023-04-25T06:12:08;7.80;97.30
1075;DHT22;526;51.392;12.448;2023-04-25T06:14:34;7.80;97.30
1075;DHT22;526;51.392;12.448;2023-04-25T06:17:00;7.90;97.30
1075;DHT22;526;51.392;12.448;2023-04-25T06:19:37;8.00;97.30
1075;DHT22;526;51.392;12.448;2023-04-25T06:22:02;8.10;97.30
1075;DHT22;526;51.392;12.448;2023-04-25T06:24:28;8.20;97.30
1075;DHT22;526;51.392;12.448;2023-04-25T06:26:54;8.30;97.30
1075;DHT22;526;51.392;12.448;2023-04-25T06:29:19;8.20;97.30
1075;DHT22;526;51.392;12.448;2023-04-25T06:31:45;8.20;97.30
1075;DHT22;526;51.392;12.448;2023-04-25T06:34:11;8.20;97.30
1075;DHT22;526;51.392;12.448;2023-04-25T06:36:36;8.30;97.30
1075;DHT22;526;51.392;12.448;2023-04-25T06:39:02;8.30;97.30
1075;DHT22;526;51.392;12.448;2023-04-25T06:41:27;8.40;97.30
1075;DHT22;526;51.392;12.448;2023-04-25T06:43:53;8.40;97.30
1075;DHT22;526;51.392;12.448;2023-04-25T06:46:19;8.40;97.30
1075;DHT22;526;51.392;12.448;2023-04-25T06:48:44;8.40;97.30
1075;DHT22;526;51.392;12.448;2023-04-25T06:51:10;8.50;97.30
1075;DHT22;526;51.392;12.448;2023-04-25T06:53:35;8.50;97.30
1075;DHT22;526;51.392;12.448;2023-04-25T06:56:01;8.50;97.30
1075;DHT22;526;51.392;12.448;2023-04-25T06:58:28;8.50;97.30
1075;DHT22;526;51.392;12.448;2023-04-25T07:00:53;8.60;97.30
1075;DHT22;526;51.392;12.448;2023-04-25T07:03:19;8.60;97.30
1075;DHT22;526;51.392;12.448;2023-04-25T07:05:45;8.60;97.30
1075;DHT22;526;51.392;12.448;2023-04-25T07:08:11;8.60;97.30
1075;DHT22;526;51.392;12.448;2023-04-25T07:10:36;8.60;97.30
1075;DHT22;526;51.392;12.448;2023-04-25T07:13:02;8.60;97.30
1075;DHT22;526;51.392;12.448;2023-04-25T07:15:27;8.60;97.30
1075;DHT22;526;51.392;12.448;2023-04-25T07:17:53;8.60;97.30
1075;DHT22;526;51.392;12.448;2023-04-25T07:20:18;8.60;97.30
1075;DHT22;526;51.392;12.448;2023-04-25T07:22:44;8.60;97.30
1075;DHT22;526;51.392;12.448;2023-04-25T07:25:15;8.60;97.30
1075;DHT22;526;51.392;12.448;2023-04-25T07:27:41;8.60;97.30
1075;DHT22;526;51.392;12.448;2023-04-25T07:30:07;8.60;97.30
1075;DHT22;526;51.392;12.448;2023-04-25T07:32:33;8.60;97.30
1075;DHT22;526;51.392;12.448;2023-04-25T07:35:00;8.60;97.30
1075;DHT22;526;51.392;12.448;2023-04-25T07:37:27;8.60;97.30
1075;DHT22;526;51.392;12.448;2023-04-25T07:39:52;8.60;97.30
1075;DHT22;526;51.392;12.448;2023-04-25T07:42:18;8.50;97.30
1075;DHT22;526;51.392;12.448;2023-04-25T07:44:43;8.50;97.30
1075;DHT22;526;51.392;12.448;2023-04-25T07:47:09;8.50;97.30
1075;DHT22;526;51.392;12.448;2023-04-25T07:49:36;8.50;97.30
1075;DHT22;526;51.392;12.448;2023-04-25T07:52:03;8.50;97.30
1075;DHT22;526;51.392;12.448;2023-04-25T07:54:29;8.40;97.30
1075;DHT22;526;51.392;12.448;2023-04-25T07:56:55;8.40;97.30
1075;DHT22;526;51.392;12.448;2023-04-25T07:59:21;8.40;97.30
1075;DHT22;526;51.392;12.448;2023-04-25T08:01:47;8.40;97.30
1075;DHT22;526;51.392;12.448;2023-04-25T08:04:12;8.40;97.30
1075;DHT22;526;51.392;12.448;2023-04-25T08:06:37;8.40;97.30
1075;DHT22;526;51.392;12.448;2023-04-25T08:11:30;8.50;97.30
1075;DHT22;526;51.392;12.448;2023-04-25T08:13:55;8.60;97.00
1075;DHT22;526;51.392;12.448;2023-04-25T08:16:21;8.60;95.80
1075;DHT22;526;51.392;12.448;2023-04-25T08:18:47;8.70;95.70
1075;DHT22;526;51.392;12.448;2023-04-25T08:21:12;8.80;95.60
1075;DHT22;526;51.392;12.448;2023-04-25T08:23:38;8.80;95.40
1075;DHT22;526;51.392;12.448;2023-04-25T08:26:04;8.80;94.80
1075;DHT22;526;51.392;12.448;2023-04-25T08:28:31;8.90;94.90
1075;DHT22;526;51.392;12.448;2023-04-25T08:30:56;8.90;94.70
1075;DHT22;526;51.392;12.448;2023-04-25T08:33:22;8.90;95.00
1075;DHT22;526;51.392;12.448;2023-04-25T08:35:47;8.90;94.60
1075;DHT22;526;51.392;12.448;2023-04-25T08:38:13;8.90;95.10
1075;DHT22;526;51.392;12.448;2023-04-25T08:40:39;8.90;95.50
1075;DHT22;526;51.392;12.448;2023-04-25T08:43:07;9.00;95.40
1075;DHT22;526;51.392;12.448;2023-04-25T08:45:39;9.00;95.90
1075;DHT22;526;51.392;12.448;2023-04-25T08:48:10;9.00;96.30
1075;DHT22;526;51.392;12.448;2023-04-25T08:50:43;9.00;95.20
1075;DHT22;526;51.392;12.448;2023-04-25T08:53:12;9.00;95.20
1075;DHT22;526;51.392;12.448;2023-04-25T08:55:45;9.00;95.20
1075;DHT22;526;51.392;12.448;2023-04-25T08:58:11;9.00;95.00
1075;DHT22;526;51.392;12.448;2023-04-25T09:00:40;9.00;94.70
1075;DHT22;526;51.392;12.448;2023-04-25T09:03:10;9.00;95.40
1075;DHT22;526;51.392;12.448;2023-04-25T09:05:38;9.00;94.50
1075;DHT22;526;51.392;12.448;2023-04-25T09:08:11;9.10;95.00
1075;DHT22;526;51.392;12.448;2023-04-25T09:10:42;9.10;95.10
1075;DHT22;526;51.392;12.448;2023-04-25T09:13:12;9.20;95.40
1075;DHT22;526;51.392;12.448;2023-04-25T09:16:12;9.30;95.40
1075;DHT22;526;51.392;12.448;2023-04-25T09:18:39;9.40;94.10
1075;DHT22;526;51.392;12.448;2023-04-25T09:21:10;9.50;93.80
1075;DHT22;526;51.392;12.448;2023-04-25T09:23:46;9.40;92.30
1075;DHT22;526;51.392;12.448;2023-04-25T09:26:17;9.40;92.60
1075;DHT22;526;51.392;12.448;2023-04-25T09:28:42;9.50;92.40
1075;DHT22;526;51.392;12.448;2023-04-25T09:31:11;9.60;91.40
1075;DHT22;526;51.392;12.448;2023-04-25T09:33:40;9.60;92.10
1075;DHT22;526;51.392;12.448;2023-04-25T09:36:10;9.70;91.40
1075;DHT22;526;51.392;12.448;2023-04-25T09:39:12;9.70;92.10
1075;DHT22;526;51.392;12.448;2023-04-25T09:42:00;9.80;91.90
1075;DHT22;526;51.392;12.448;2023-04-25T09:44:31;9.70;91.30
1075;DHT22;526;51.392;12.448;2023-04-25T09:47:00;9.60;91.90
1075;DHT22;526;51.392;12.448;2023-04-25T09:49:52;9.60;91.70
1075;DHT22;526;51.392;12.448;2023-04-25T09:52:23;9.50;92.40
1075;DHT22;526;51.392;12.448;2023-04-25T09:54:52;9.50;93.70
1075;DHT22;526;51.392;12.448;2023-04-25T09:57:30;9.50;92.70
1075;DHT22;526;51.392;12.448;2023-04-25T10:00:20;9.50;93.60
1075;DHT22;526;51.392;12.448;2023-04-25T10:03:52;9.40;93.90
1075;DHT22;526;51.392;12.448;2023-04-25T10:06:03;9.30;94.00
1075;DHT22;526;51.392;12.448;2023-04-25T10:08:52;9.30;94.20
1075;DHT22;526;51.392;12.448;2023-04-25T10:11:20;9.20;94.20
1075;DHT22;526;51.392;12.448;2023-04-25T10:13:51;9.10;94.50
1075;DHT22;526;51.392;12.448;2023-04-25T10:16:20;9.00;94.90
1075;DHT22;526;51.392;12.448;2023-04-25T10:18:46;9.00;94.50
1075;DHT22;526;51.392;12.448;2023-04-25T10:21:15;9.20;94.50
1075;DHT22;526;51.392;12.448;2023-04-25T10:23:41;9.30;94.40
1075;DHT22;526;51.392;12.448;2023-04-25T10:26:07;9.50;94.40
1075;DHT22;526;51.392;12.448;2023-04-25T10:28:57;9.60;94.10
1075;DHT22;526;51.392;12.448;2023-04-25T10:31:26;9.70;93.80
1075;DHT22;526;51.392;12.448;2023-04-25T10:33:53;9.80;93.70
1075;DHT22;526;51.392;12.448;2023-04-25T10:36:20;9.90;92.60
1075;DHT22;526;51.392;12.448;2023-04-25T10:38:47;10.00;92.90
1075;DHT22;526;51.392;12.448;2023-04-25T10:41:17;10.00;92.10
1075;DHT22;526;51.392;12.448;2023-04-25T10:43:47;10.00;92.50
1075;DHT22;526;51.392;12.448;2023-04-25T10:46:25;9.90;92.20
1075;DHT22;526;51.392;12.448;2023-04-25T10:48:53;9.80;91.80
1075;DHT22;526;51.392;12.448;2023-04-25T10:51:20;9.80;92.30
1075;DHT22;526;51.392;12.448;2023-04-25T10:54:07;9.80;92.10
1075;DHT22;526;51.392;12.448;2023-04-25T10:56:33;9.80;92.00
1075;DHT22;526;51.392;12.448;2023-04-25T10:59:12;9.70;92.30
1075;DHT22;526;51.392;12.448;2023-04-25T11:01:43;9.70;92.30
1075;DHT22;526;51.392;12.448;2023-04-25T11:04:44;9.80;92.70
1075;DHT22;526;51.392;12.448;2023-04-25T11:07:16;9.80;92.30
1075;DHT22;526;51.392;12.448;2023-04-25T11:09:46;9.70;92.50
1075;DHT22;526;51.392;12.448;2023-04-25T11:12:11;9.60;91.90
1075;DHT22;526;51.392;12.448;2023-04-25T11:14:37;9.50;91.90
1075;DHT22;526;51.392;12.448;2023-04-25T11:17:03;9.30;91.60
1075;DHT22;526;51.392;12.448;2023-04-25T11:19:29;9.10;91.80
1075;DHT22;526;51.392;12.448;2023-04-25T11:21:55;9.00;92.20
1075;DHT22;526;51.392;12.448;2023-04-25T11:24:29;9.00;92.80
1075;DHT22;526;51.392;12.448;2023-04-25T11:26:56;8.90;92.90
1075;DHT22;526;51.392;12.448;2023-04-25T11:29:29;8.90;93.40
1075;DHT22;526;51.392;12.448;2023-04-25T11:31:55;8.90;93.40
1075;DHT22;526;51.392;12.448;2023-04-25T11:34:26;8.90;92.70
1075;DHT22;526;51.392;12.448;2023-04-25T11:36:53;9.00;92.70
1075;DHT22;526;51.392;12.448;2023-04-25T11:39:19;9.10;92.60
1075;DHT22;526;51.392;12.448;2023-04-25T11:41:45;9.10;91.80
1075;DHT22;526;51.392;12.448;2023-04-25T11:44:10;9.10;91.70
1075;DHT22;526;51.392;12.448;2023-04-25T11:46:38;9.20;91.30
1075;DHT22;526;51.392;12.448;2023-04-25T11:49:04;9.30;91.60
1075;DHT22;526;51.392;12.448;2023-04-25T11:51:30;9.40;90.50
1075;DHT22;526;51.392;12.448;2023-04-25T11:53:57;9.40;90.50
1075;DHT22;526;51.392;12.448;2023-04-25T11:56:22;9.50;90.40
1075;DHT22;526;51.392;12.448;2023-04-25T11:58:58;9.50;90.10
1075;DHT22;526;51.392;12.448;2023-04-25T12:01:33;9.50;89.80
1075;DHT22;526;51.392;12.448;2023-04-25T12:04:17;9.50;90.20
1075;DHT22;526;51.392;12.448;2023-04-25T12:06:44;9.50;90.00
1075;DHT22;526;51.392;12.448;2023-04-25T12:09:14;9.60;90.20
1075;DHT22;526;51.392;12.448;2023-04-25T12:14:08;9.70;89.60
1075;DHT22;526;51.392;12.448;2023-04-25T12:16:44;9.80;89.70
1075;DHT22;526;51.392;12.448;2023-04-25T12:19:13;10.00;88.30
1075;DHT22;526;51.392;12.448;2023-04-25T12:21:39;10.10;87.20
1075;DHT22;526;51.392;12.448;2023-04-25T12:24:17;10.50;86.60
1075;DHT22;526;51.392;12.448;2023-04-25T12:26:48;10.70;85.20
1075;DHT22;526;51.392;12.448;2023-04-25T12:29:17;10.80;86.40
1075;DHT22;526;51.392;12.448;2023-04-25T12:31:42;10.70;83.20
1075;DHT22;526;51.392;12.448;2023-04-25T12:34:08;10.50;84.00
1075;DHT22;526;51.392;12.448;2023-04-25T12:36:33;10.30;85.10
1075;DHT22;526;51.392;12.448;2023-04-25T12:38:59;10.10;85.80
1075;DHT22;526;51.392;12.448;2023-04-25T12:41:29;10.00;86.30
1075;DHT22;526;51.392;12.448;2023-04-25T12:46:21;9.70;85.80
1075;DHT22;526;51.392;12.448;2023-04-25T12:48:48;9.70;86.40
1075;DHT22;526;51.392;12.448;2023-04-25T12:51:13;9.70;86.90
1075;DHT22;526;51.392;12.448;2023-04-25T12:53:39;9.90;87.70
1075;DHT22;526;51.392;12.448;2023-04-25T12:56:06;10.00;86.20
1075;DHT22;526;51.392;12.448;2023-04-25T12:58:32;10.10;85.70
1075;DHT22;526;51.392;12.448;2023-04-25T13:00:58;10.10;83.80
1075;DHT22;526;51.392;12.448;2023-04-25T13:03:24;10.10;82.40
1075;DHT22;526;51.392;12.448;2023-04-25T13:05:52;10.00;82.00
1075;DHT22;526;51.392;12.448;2023-04-25T13:08:18;10.00;82.50
1075;DHT22;526;51.392;12.448;2023-04-25T13:10:44;9.90;82.40
1075;DHT22;526;51.392;12.448;2023-04-25T13:13:10;9.90;81.80
1075;DHT22;526;51.392;12.448;2023-04-25T13:15:35;9.90;81.30
1075;DHT22;526;51.392;12.448;2023-04-25T13:18:03;9.80;80.80
1075;DHT22;526;51.392;12.448;2023-04-25T13:20:28;9.70;81.30
1075;DHT22;526;51.392;12.448;2023-04-25T13:22:54;9.70;81.20
1075;DHT22;526;51.392;12.448;2023-04-25T13:25:19;9.70;81.20
1075;DHT22;526;51.392;12.448;2023-04-25T13:27:45;9.70;81.40
1075;DHT22;526;51.392;12.448;2023-04-25T13:30:11;9.70;80.80
1075;DHT22;526;51.392;12.448;2023-04-25T13:32:37;9.70;80.80
1075;DHT22;526;51.392;12.448;2023-04-25T13:35:05;9.80;80.80
1075;DHT22;526;51.392;12.448;2023-04-25T13:37:31;9.80;81.70
1075;DHT22;526;51.392;12.448;2023-04-25T13:40:00;9.90;81.30
1075;DHT22;526;51.392;12.448;2023-04-25T13:42:25;10.10;82.40
1075;DHT22;526;51.392;12.448;2023-04-25T13:44:51;10.20;81.60
1075;DHT22;526;51.392;12.448;2023-04-25T13:47:17;10.40;82.90
1075;DHT22;526;51.392;12.448;2023-04-25T13:49:42;10.80;81.50
1075;DHT22;526;51.392;12.448;2023-04-25T13:52:08;11.10;79.90
1075;DHT22;526;51.392;12.448;2023-04-25T13:54:33;11.20;79.80
1075;DHT22;526;51.392;12.448;2023-04-25T13:56:59;11.40;80.60
1075;DHT22;526;51.392;12.448;2023-04-25T13:59:25;11.70;78.80
1075;DHT22;526;51.392;12.448;2023-04-25T14:01:51;12.20;78.20
1075;DHT22;526;51.392;12.448;2023-04-25T14:04:17;12.50;76.50
1075;DHT22;526;51.392;12.448;2023-04-25T14:06:42;12.30;76.30
1075;DHT22;526;51.392;12.448;2023-04-25T14:09:08;12.00;75.10
1075;DHT22;526;51.392;12.448;2023-04-25T14:11:36;11.60;76.20
1075;DHT22;526;51.392;12.448;2023-04-25T14:14:02;11.50;76.50
1075;DHT22;526;51.392;12.448;2023-04-25T14:16:28;11.40;75.90
1075;DHT22;526;51.392;12.448;2023-04-25T14:18:53;11.30;76.40
1075;DHT22;526;51.392;12.448;2023-04-25T14:21:20;11.20;77.30
1075;DHT22;526;51.392;12.448;2023-04-25T14:23:48;11.10;77.40
1075;DHT22;526;51.392;12.448;2023-04-25T14:26:14;10.90;77.70
1075;DHT22;526;51.392;12.448;2023-04-25T14:28:39;10.80;77.50
1075;DHT22;526;51.392;12.448;2023-04-25T14:31:05;10.60;78.50
1075;DHT22;526;51.392;12.448;2023-04-25T14:33:31;10.50;78.30
1075;DHT22;526;51.392;12.448;2023-04-25T14:35:56;10.40;78.20
1075;DHT22;526;51.392;12.448;2023-04-25T14:38:22;10.40;78.60
1075;DHT22;526;51.392;12.448;2023-04-25T14:40:51;10.40;77.80
1075;DHT22;526;51.392;12.448;2023-04-25T14:43:17;10.40;78.80
1075;DHT22;526;51.392;12.448;2023-04-25T14:45:43;10.50;78.90
1075;DHT22;526;51.392;12.448;2023-04-25T14:48:08;10.60;78.30
1075;DHT22;526;51.392;12.448;2023-04-25T14:50:34;10.60;78.10
1075;DHT22;526;51.392;12.448;2023-04-25T14:52:59;10.70;77.70
1075;DHT22;526;51.392;12.448;2023-04-25T14:55:29;10.70;78.40
1075;DHT22;526;51.392;12.448;2023-04-25T14:57:54;10.70;77.00
1075;DHT22;526;51.392;12.448;2023-04-25T15:00:21;10.80;77.80
1075;DHT22;526;51.392;12.448;2023-04-25T15:02:48;10.80;77.60
1075;DHT22;526;51.392;12.448;2023-04-25T15:05:13;10.70;78.20
1075;DHT22;526;51.392;12.448;2023-04-25T15:07:42;10.60;79.60
1075;DHT22;526;51.392;12.448;2023-04-25T15:10:36;10.50;79.20
1075;DHT22;526;51.392;12.448;2023-04-25T15:13:10;10.40;80.50
1075;DHT22;526;51.392;12.448;2023-04-25T15:15:41;10.30;81.10
1075;DHT22;526;51.392;12.448;2023-04-25T15:18:09;10.30;82.20
1075;DHT22;526;51.392;12.448;2023-04-25T15:20:40;10.30;80.30
1075;DHT22;526;51.392;12.448;2023-04-25T15:23:12;10.30;80.00
1075;DHT22;526;51.392;12.448;2023-04-25T15:28:49;10.40;81.00
1075;DHT22;526;51.392;12.448;2023-04-25T15:31:22;10.40;80.80
1075;DHT22;526;51.392;12.448;2023-04-25T15:34:21;10.40;79.40
1075;DHT22;526;51.392;12.448;2023-04-25T15:36:53;10.40;79.60
1075;DHT22;526;51.392;12.448;2023-04-25T15:39:41;10.30;79.80
1075;DHT22;526;51.392;12.448;2023-04-25T15:42:09;10.30;79.90
1075;DHT22;526;51.392;12.448;2023-04-25T15:44:37;10.30;80.00
1075;DHT22;526;51.392;12.448;2023-04-25T15:47:03;10.20;80.00
1075;DHT22;526;51.392;12.448;2023-04-25T15:49:28;10.20;79.80
1075;DHT22;526;51.392;12.448;2023-04-25T15:51:55;10.20;80.30
1075;DHT22;526;51.392;12.448;2023-04-25T15:54:21;10.20;79.70
1075;DHT22;526;51.392;12.448;2023-04-25T15:56:49;10.30;80.20
1075;DHT22;526;51.392;12.448;2023-04-25T15:59:17;10.20;80.20
1075;DHT22;526;51.392;12.448;2023-04-25T16:01:42;10.20;80.30
1075;DHT22;526;51.392;12.448;2023-04-25T16:04:08;10.20;80.90
1075;DHT22;526;51.392;12.448;2023-04-25T16:06:36;10.30;82.30
1075;DHT22;526;51.392;12.448;2023-04-25T16:09:03;10.20;81.50
1075;DHT22;526;51.392;12.448;2023-04-25T16:11:28;10.10;82.00
1075;DHT22;526;51.392;12.448;2023-04-25T16:13:54;10.00;81.60
1075;DHT22;526;51.392;12.448;2023-04-25T16:16:19;10.00;81.90
1075;DHT22;526;51.392;12.448;2023-04-25T16:18:45;10.00;82.20
1075;DHT22;526;51.392;12.448;2023-04-25T16:21:11;9.90;82.40
1075;DHT22;526;51.392;12.448;2023-04-25T16:23:40;9.80;81.40
1075;DHT22;526;51.392;12.448;2023-04-25T16:26:06;9.80;81.50
1075;DHT22;526;51.392;12.448;2023-04-25T16:28:33;9.70;80.50
1075;DHT22;526;51.392;12.448;2023-04-25T16:30:58;9.70;81.20
1075;DHT22;526;51.392;12.448;2023-04-25T16:33:24;9.70;81.40
1075;DHT22;526;51.392;12.448;2023-04-25T16:35:50;9.70;82.20